createdAt,value
2018-09-23T00:00:34.794Z,23.60
2018-09-23T00:03:00.768Z,23.67
2018-09-23T00:05:26.719Z,23.68
2018-09-23T00:07:52.677Z,23.61
2018-09-23T00:10:18.621Z,23.59
2018-09-23T00:12:44.582Z,23.58
2018-09-23T00:15:10.547Z,23.54
2018-09-23T00:17:36.587Z,23.53
2018-09-23T00:20:02.525Z,23.59
2018-09-23T00:22:28.484Z,23.51
2018-09-23T00:24:54.433Z,23.55
2018-09-23T00:27:20.372Z,23.58
2018-09-23T00:29:46.299Z,23.54
2018-09-23T00:32:12.248Z,23.43
2018-09-23T00:34:38.191Z,23.45
2018-09-23T00:37:04.135Z,23.43
2018-09-23T00:39:30.081Z,23.44
2018-09-23T00:41:56.033Z,23.45
2018-09-23T00:44:21.998Z,23.44
2018-09-23T00:46:47.956Z,23.40
2018-09-23T00:49:13.902Z,23.42
2018-09-23T00:51:39.848Z,23.42
2018-09-23T00:54:05.775Z,23.38
2018-09-23T00:56:31.749Z,23.37
2018-09-23T00:58:57.693Z,23.37
2018-09-23T01:01:23.652Z,23.29
2018-09-23T01:03:49.623Z,23.35
2018-09-23T01:06:15.569Z,23.34
2018-09-23T01:08:41.505Z,23.37
2018-09-23T01:11:07.498Z,23.40
2018-09-23T01:13:33.458Z,23.38
2018-09-23T01:15:59.419Z,23.31
2018-09-23T01:18:25.384Z,23.33
2018-09-23T01:20:51.348Z,23.34
2018-09-23T01:23:17.278Z,23.32
2018-09-23T01:25:43.224Z,23.29
2018-09-23T01:28:09.162Z,23.33
2018-09-23T01:30:35.108Z,23.35
2018-09-23T01:33:01.059Z,23.31
2018-09-23T01:35:27.043Z,23.27
2018-09-23T01:37:52.973Z,23.24
2018-09-23T01:40:18.952Z,23.22
2018-09-23T01:42:44.889Z,23.25
2018-09-23T01:45:10.834Z,23.14
2018-09-23T01:47:36.794Z,23.13
2018-09-23T01:50:02.757Z,23.17
2018-09-23T01:52:28.697Z,23.19
2018-09-23T01:54:54.637Z,23.19
2018-09-23T01:57:20.568Z,23.23
2018-09-23T01:59:46.536Z,23.18
2018-09-23T02:02:12.501Z,23.13
2018-09-23T02:04:38.468Z,23.13
2018-09-23T02:07:04.444Z,23.11
2018-09-23T02:09:30.376Z,23.11
2018-09-23T02:11:56.344Z,23.10
2018-09-23T02:14:22.312Z,23.13
2018-09-23T02:16:48.277Z,23.14
2018-09-23T02:19:14.264Z,23.17
2018-09-23T02:21:40.209Z,23.16
2018-09-23T02:24:06.165Z,23.14
2018-09-23T02:26:32.174Z,23.18
2018-09-23T02:28:58.096Z,23.17
2018-09-23T02:31:24.073Z,23.13
2018-09-23T02:33:50.026Z,22.99
2018-09-23T02:36:15.971Z,23.09
2018-09-23T02:38:41.900Z,23.10
2018-09-23T02:41:07.878Z,23.10
2018-09-23T02:43:33.848Z,23.08
2018-09-23T02:45:59.812Z,23.08
2018-09-23T02:48:25.789Z,23.09
2018-09-23T02:50:51.779Z,23.09
2018-09-23T02:53:17.735Z,23.07
2018-09-23T02:55:43.684Z,23.08
2018-09-23T02:58:09.636Z,23.07
2018-09-23T03:00:35.583Z,23.08
2018-09-23T03:03:01.508Z,23.07
2018-09-23T03:05:27.444Z,23.00
2018-09-23T03:07:53.419Z,23.01
2018-09-23T03:10:19.374Z,23.01
2018-09-23T03:12:45.338Z,22.90
2018-09-23T03:15:11.288Z,22.90
2018-09-23T03:17:37.226Z,22.90
2018-09-23T03:20:03.171Z,22.87
2018-09-23T03:22:29.126Z,22.96
2018-09-23T03:24:55.076Z,22.97
2018-09-23T03:27:21.045Z,22.88
2018-09-23T03:29:47.006Z,22.83
2018-09-23T03:32:12.946Z,22.76
2018-09-23T03:34:38.878Z,22.66
2018-09-23T03:37:04.807Z,22.57
2018-09-23T03:39:30.749Z,22.59
2018-09-23T03:41:56.692Z,22.74
2018-09-23T03:44:22.631Z,22.76
2018-09-23T03:46:48.630Z,22.68
2018-09-23T03:49:14.576Z,22.71
2018-09-23T03:51:40.509Z,22.86
2018-09-23T03:54:06.429Z,22.80
2018-09-23T03:56:32.353Z,22.78
2018-09-23T03:58:58.296Z,22.72
2018-09-23T04:01:24.270Z,22.77
2018-09-23T04:03:50.204Z,22.77
2018-09-23T04:06:16.160Z,22.77
2018-09-23T04:08:42.100Z,22.79
2018-09-23T04:11:08.022Z,22.84
2018-09-23T04:13:33.977Z,22.88
2018-09-23T04:15:59.904Z,22.89
2018-09-23T04:18:25.865Z,22.93
2018-09-23T04:20:51.850Z,22.98
2018-09-23T04:23:17.824Z,22.92
2018-09-23T04:25:43.787Z,22.90
2018-09-23T04:28:09.733Z,22.87
2018-09-23T04:30:35.660Z,22.86
2018-09-23T04:33:01.606Z,22.81
2018-09-23T04:35:27.546Z,22.88
2018-09-23T04:37:53.522Z,22.91
2018-09-23T04:40:19.491Z,22.89
2018-09-23T04:42:45.422Z,22.89
2018-09-23T04:45:11.379Z,22.86
2018-09-23T04:47:37.338Z,22.86
2018-09-23T04:50:03.298Z,22.89
2018-09-23T04:52:29.339Z,22.93
2018-09-23T04:54:55.279Z,22.93
2018-09-23T04:57:21.218Z,22.99
2018-09-23T04:59:47.148Z,22.94
2018-09-23T05:02:13.072Z,22.91
2018-09-23T05:04:39.012Z,22.87
2018-09-23T05:07:04.957Z,22.80
2018-09-23T05:09:30.901Z,22.85
2018-09-23T05:11:56.847Z,22.84
2018-09-23T05:14:22.816Z,22.79
2018-09-23T05:16:48.779Z,22.84
2018-09-23T05:19:14.858Z,22.90
2018-09-23T05:21:40.842Z,22.91
2018-09-23T05:24:06.782Z,22.96
2018-09-23T05:26:32.755Z,22.97
2018-09-23T05:28:58.734Z,22.94
2018-09-23T05:31:24.670Z,22.96
2018-09-23T05:33:50.640Z,22.99
2018-09-23T05:36:16.610Z,22.91
2018-09-23T05:38:42.556Z,22.78
2018-09-23T05:41:08.515Z,22.70
2018-09-23T05:43:34.464Z,22.68
2018-09-23T05:46:00.412Z,22.76
2018-09-23T05:48:26.372Z,22.89
2018-09-23T05:50:52.528Z,22.90
2018-09-23T05:53:18.500Z,22.92
2018-09-23T05:55:44.477Z,22.76
2018-09-23T05:58:10.407Z,22.74
2018-09-23T06:00:36.355Z,22.82
2018-09-23T06:03:02.307Z,22.79
2018-09-23T06:05:28.236Z,22.77
2018-09-23T06:07:54.184Z,22.82
2018-09-23T06:10:20.141Z,22.88
2018-09-23T06:12:46.097Z,22.87
2018-09-23T06:15:12.049Z,22.85
2018-09-23T06:17:38.112Z,22.89
2018-09-23T06:20:04.058Z,22.99
2018-09-23T06:22:29.987Z,23.00
2018-09-23T06:24:55.924Z,22.95
2018-09-23T06:27:21.871Z,23.00
2018-09-23T06:29:47.802Z,23.08
2018-09-23T06:32:13.724Z,23.16
2018-09-23T06:34:39.661Z,23.31
2018-09-23T06:37:05.682Z,23.40
2018-09-23T06:39:31.611Z,23.33
2018-09-23T06:41:57.550Z,23.39
2018-09-23T06:44:23.505Z,23.47
2018-09-23T06:46:49.469Z,23.55
2018-09-23T06:49:15.408Z,23.54
2018-09-23T06:51:41.330Z,23.57
2018-09-23T06:54:07.284Z,23.48
2018-09-23T06:56:33.242Z,23.53
2018-09-23T06:58:59.199Z,23.52
2018-09-23T07:01:25.158Z,23.54
2018-09-23T07:03:51.131Z,23.52
2018-09-23T07:06:17.106Z,23.56
2018-09-23T07:08:43.062Z,23.61
2018-09-23T07:11:09.035Z,23.65
2018-09-23T07:13:35.004Z,23.66
2018-09-23T07:16:00.993Z,23.63
2018-09-23T07:18:26.954Z,23.61
2018-09-23T07:20:52.914Z,23.59
2018-09-23T07:23:18.896Z,23.61
2018-09-23T07:25:44.863Z,23.56
2018-09-23T07:28:10.818Z,23.47
2018-09-23T07:30:36.861Z,23.63
2018-09-23T07:33:02.837Z,23.73
2018-09-23T07:35:28.817Z,23.74
2018-09-23T07:37:54.756Z,23.79
2018-09-23T07:40:20.736Z,23.79
2018-09-23T07:42:46.705Z,23.84
2018-09-23T07:45:12.688Z,23.84
2018-09-23T07:47:38.654Z,23.77
2018-09-23T07:50:04.656Z,23.69
2018-09-23T07:52:30.592Z,23.66
2018-09-23T07:54:56.566Z,23.71
2018-09-23T07:57:22.520Z,23.78
2018-09-23T07:59:48.487Z,23.77
2018-09-23T08:02:14.498Z,23.72
2018-09-23T08:04:40.460Z,23.63
2018-09-23T08:07:06.420Z,23.73
2018-09-23T08:09:32.392Z,23.85
2018-09-23T08:11:58.336Z,23.94
2018-09-23T08:14:24.818Z,24.01
2018-09-23T08:16:50.261Z,24.03
2018-09-23T08:19:16.224Z,24.06
2018-09-23T08:21:42.144Z,24.05
2018-09-23T08:24:08.076Z,24.00
2018-09-23T08:26:34.088Z,23.95
2018-09-23T08:28:59.987Z,23.84
2018-09-23T08:31:25.983Z,23.74
2018-09-23T08:33:51.962Z,23.77
2018-09-23T08:36:17.913Z,23.74
2018-09-23T08:38:43.894Z,23.44
2018-09-23T08:41:09.851Z,23.40
2018-09-23T08:43:35.788Z,23.52
2018-09-23T08:46:01.738Z,23.60
2018-09-23T08:48:27.828Z,23.71
2018-09-23T08:50:53.676Z,23.60
2018-09-23T08:53:19.666Z,23.41
2018-09-23T08:55:45.626Z,23.35
2018-09-23T08:58:11.568Z,23.36
2018-09-23T09:00:37.648Z,23.37
2018-09-23T09:03:03.613Z,23.21
2018-09-23T09:05:29.601Z,23.28
2018-09-23T09:07:55.567Z,23.19
2018-09-23T09:10:21.542Z,23.34
2018-09-23T09:12:47.636Z,23.36
2018-09-23T09:15:13.581Z,23.21
2018-09-23T09:17:39.513Z,22.98
2018-09-23T09:20:05.473Z,22.84
2018-09-23T09:22:31.430Z,22.92
2018-09-23T09:24:57.417Z,22.96
2018-09-23T09:27:23.376Z,22.92
2018-09-23T09:29:49.328Z,22.89
2018-09-23T09:32:15.310Z,22.87
2018-09-23T09:34:41.249Z,22.91
2018-09-23T09:37:07.239Z,23.00
2018-09-23T09:39:33.170Z,23.10
2018-09-23T09:41:59.136Z,23.11
2018-09-23T09:44:25.065Z,23.15
2018-09-23T09:46:51.026Z,23.27
2018-09-23T09:49:17.000Z,23.26
2018-09-23T09:51:42.947Z,23.16
2018-09-23T09:54:08.885Z,22.95
2018-09-23T09:56:34.868Z,23.00
2018-09-23T09:59:00.835Z,23.09
2018-09-23T10:01:26.788Z,22.98
2018-09-23T10:03:52.747Z,23.09
2018-09-23T10:06:18.731Z,23.19
2018-09-23T10:08:44.721Z,22.83
2018-09-23T10:11:10.703Z,22.86
2018-09-23T10:13:36.665Z,22.98
2018-09-23T10:16:02.624Z,23.09
2018-09-23T10:18:28.626Z,23.21
2018-09-23T10:20:54.577Z,23.28
2018-09-23T10:23:20.660Z,23.15
2018-09-23T10:25:46.508Z,23.10
2018-09-23T10:28:12.481Z,23.06
2018-09-23T10:30:38.430Z,22.97
2018-09-23T10:33:04.425Z,22.90
2018-09-23T10:35:30.394Z,22.95
2018-09-23T10:37:56.399Z,23.10
2018-09-23T10:40:22.351Z,22.77
2018-09-23T10:42:48.335Z,22.93
2018-09-23T10:45:14.296Z,23.05
2018-09-23T10:47:40.314Z,23.12
2018-09-23T10:50:06.311Z,23.28
2018-09-23T10:52:32.282Z,23.18
2018-09-23T10:54:58.273Z,22.90
2018-09-23T10:57:24.242Z,22.63
2018-09-23T10:59:50.248Z,22.72
2018-09-23T11:02:16.213Z,22.80
2018-09-23T11:04:42.151Z,22.84
2018-09-23T11:07:08.161Z,22.88
2018-09-23T11:09:34.166Z,22.61
2018-09-23T11:12:00.168Z,22.86
2018-09-23T11:14:26.126Z,22.79
2018-09-23T11:16:52.063Z,22.54
2018-09-23T11:19:18.021Z,22.36
2018-09-23T11:21:43.977Z,22.56
2018-09-23T11:24:09.946Z,22.57
2018-09-23T11:26:35.881Z,22.54
2018-09-23T11:29:01.840Z,22.48
2018-09-23T11:31:27.881Z,22.47
2018-09-23T11:33:53.837Z,22.54
2018-09-23T11:36:19.812Z,22.49
2018-09-23T11:38:45.761Z,22.41
2018-09-23T11:41:11.729Z,22.59
2018-09-23T11:43:37.714Z,22.60
2018-09-23T11:46:03.665Z,22.57
2018-09-23T11:48:29.704Z,22.15
2018-09-23T11:50:55.661Z,22.32
2018-09-23T11:53:21.597Z,22.40
2018-09-23T11:55:47.567Z,22.28
2018-09-23T11:58:13.545Z,22.17
2018-09-23T12:00:39.514Z,22.01
2018-09-23T12:03:05.527Z,22.10
2018-09-23T12:05:31.501Z,22.31
2018-09-23T12:07:57.471Z,22.10
2018-09-23T12:10:23.470Z,22.12
2018-09-23T12:12:49.407Z,22.09
2018-09-23T12:15:15.365Z,21.92
2018-09-23T12:17:41.354Z,21.71
2018-09-23T12:20:07.322Z,21.72
2018-09-23T12:22:33.265Z,21.61
2018-09-23T12:25:00.259Z,21.41
2018-09-23T12:27:26.230Z,21.51
2018-09-23T12:29:52.214Z,21.66
2018-09-23T12:32:18.174Z,21.77
2018-09-23T12:34:44.147Z,22.04
2018-09-23T12:37:10.120Z,22.05
2018-09-23T12:39:36.063Z,22.16
2018-09-23T12:42:02.045Z,22.38
2018-09-23T12:44:28.045Z,22.36
2018-09-23T12:46:54.007Z,22.44
2018-09-23T12:49:19.960Z,22.52
2018-09-23T12:51:45.921Z,22.48
2018-09-23T12:54:11.865Z,22.58
2018-09-23T12:56:37.817Z,22.53
2018-09-23T12:59:03.896Z,22.45
2018-09-23T13:01:29.988Z,22.29
2018-09-23T13:03:55.924Z,22.43
2018-09-23T13:06:21.878Z,22.45
2018-09-23T13:08:47.814Z,22.51
2018-09-23T13:11:13.763Z,22.43
2018-09-23T13:13:39.739Z,22.28
2018-09-23T13:16:05.709Z,22.15
2018-09-23T13:18:31.698Z,22.40
2018-09-23T13:20:57.658Z,22.08
2018-09-23T13:23:23.780Z,22.18
2018-09-23T13:25:49.734Z,21.96
2018-09-23T13:28:15.688Z,22.14
2018-09-23T13:30:41.649Z,22.30
2018-09-23T13:33:07.610Z,22.28
2018-09-23T13:35:33.590Z,22.36
2018-09-23T13:37:59.547Z,22.42
2018-09-23T13:40:25.497Z,22.01
2018-09-23T13:42:51.452Z,22.19
2018-09-23T13:45:18.547Z,22.08
2018-09-23T13:47:44.579Z,22.11
2018-09-23T13:50:10.584Z,21.89
2018-09-23T13:52:36.556Z,21.97
2018-09-23T13:55:02.532Z,21.67
2018-09-23T13:57:28.465Z,21.34
2018-09-23T13:59:54.415Z,20.97
2018-09-23T14:02:20.423Z,21.26
2018-09-23T14:04:46.361Z,21.18
2018-09-23T14:07:12.296Z,21.05
2018-09-23T14:09:38.251Z,21.16
2018-09-23T14:12:04.249Z,21.26
2018-09-23T14:14:30.190Z,21.50
2018-09-23T14:16:56.156Z,21.61
2018-09-23T14:19:22.137Z,21.63
2018-09-23T14:21:48.104Z,21.82
2018-09-23T14:24:14.353Z,22.02
2018-09-23T14:26:40.318Z,22.04
2018-09-23T14:29:06.353Z,21.98
2018-09-23T14:31:32.268Z,21.91
2018-09-23T14:33:58.202Z,21.68
2018-09-23T14:36:24.262Z,21.84
2018-09-23T14:38:50.147Z,21.78
2018-09-23T14:41:16.120Z,21.77
2018-09-23T14:43:42.063Z,21.82
2018-09-23T14:46:08.001Z,21.66
2018-09-23T14:48:33.965Z,21.69
2018-09-23T14:51:00.002Z,21.70
2018-09-23T14:53:25.982Z,21.59
2018-09-23T14:55:52.042Z,21.74
2018-09-23T14:58:18.016Z,21.79
2018-09-23T15:00:44.099Z,21.86
2018-09-23T15:03:10.054Z,21.94
2018-09-23T15:05:36.041Z,22.16
2018-09-23T15:08:02.042Z,22.34
2018-09-23T15:10:28.040Z,22.48
2018-09-23T15:12:54.040Z,22.58
2018-09-23T15:15:20.044Z,22.71
2018-09-23T15:17:46.029Z,22.78
2018-09-23T15:20:12.010Z,22.73
2018-09-23T15:22:37.973Z,22.69
2018-09-23T15:25:03.982Z,22.69
2018-09-23T15:27:31.116Z,22.74
2018-09-23T15:29:57.151Z,22.71
2018-09-23T15:32:24.123Z,22.76
2018-09-23T15:34:50.123Z,22.73
2018-09-23T15:37:16.150Z,22.65
2018-09-23T15:39:42.097Z,22.66
2018-09-23T15:42:08.058Z,22.80
2018-09-23T15:44:34.017Z,22.84
2018-09-23T15:47:00.055Z,22.76
2018-09-23T15:49:26.097Z,22.81
2018-09-23T15:51:52.070Z,22.89
2018-09-23T15:54:18.004Z,22.82
2018-09-23T15:56:43.940Z,22.77
2018-09-23T15:59:09.944Z,22.89
2018-09-23T16:01:35.889Z,22.73
2018-09-23T16:04:03.871Z,22.69
2018-09-23T16:06:29.872Z,22.70
2018-09-23T16:08:55.891Z,22.82
2018-09-23T16:11:21.840Z,22.86
2018-09-23T16:13:47.848Z,22.81
2018-09-23T16:16:13.871Z,22.78
2018-09-23T16:18:40.069Z,22.78
2018-09-23T16:21:05.900Z,22.57
2018-09-23T16:23:31.851Z,22.28
2018-09-23T16:25:57.906Z,22.21
2018-09-23T16:28:23.897Z,22.52
2018-09-23T16:30:49.861Z,22.17
2018-09-23T16:33:15.822Z,21.19
2018-09-23T16:35:41.812Z,21.22
2018-09-23T16:38:07.758Z,21.41
2018-09-23T16:40:33.816Z,22.00
2018-09-23T16:42:59.767Z,22.03
2018-09-23T16:45:25.705Z,22.22
2018-09-23T16:47:51.690Z,22.15
2018-09-23T16:50:17.674Z,22.20
2018-09-23T16:52:43.745Z,22.04
2018-09-23T16:55:09.791Z,21.97
2018-09-23T16:57:35.819Z,22.08
2018-09-23T17:00:01.796Z,22.29
2018-09-23T17:02:27.810Z,22.34
2018-09-23T17:04:53.837Z,22.34
2018-09-23T17:07:19.857Z,22.29
2018-09-23T17:09:45.749Z,22.26
2018-09-23T17:12:11.725Z,22.13
2018-09-23T17:14:37.687Z,22.11
2018-09-23T17:17:03.654Z,21.97
2018-09-23T17:19:29.607Z,22.10
2018-09-23T17:21:55.581Z,22.26
2018-09-23T17:24:21.539Z,22.31
2018-09-23T17:26:47.538Z,22.36
2018-09-23T17:29:13.493Z,22.44
2018-09-23T17:31:39.470Z,22.49
2018-09-23T17:34:05.436Z,22.52
2018-09-23T17:36:31.455Z,22.59
2018-09-23T17:38:58.522Z,22.45
2018-09-23T17:41:24.503Z,22.46
2018-09-23T17:43:50.457Z,22.45
2018-09-23T17:46:16.480Z,22.55
2018-09-23T17:48:42.559Z,22.52
2018-09-23T17:51:08.500Z,22.66
2018-09-23T17:53:34.477Z,22.87
2018-09-23T17:56:00.448Z,23.01
2018-09-23T17:58:26.451Z,23.10
2018-09-23T18:00:52.463Z,23.11
2018-09-23T18:03:18.431Z,23.19
2018-09-23T18:05:45.502Z,23.42
2018-09-23T18:08:11.518Z,23.54
2018-09-23T18:10:37.520Z,23.66
2018-09-23T18:13:03.555Z,23.76
2018-09-23T18:15:29.571Z,23.70
2018-09-23T18:17:55.556Z,23.53
2018-09-23T18:20:21.512Z,23.33
2018-09-23T18:22:47.823Z,23.19
2018-09-23T18:25:14.035Z,23.10
2018-09-23T18:27:40.021Z,23.01
2018-09-23T18:30:05.992Z,22.86
2018-09-23T18:32:31.949Z,22.74
2018-09-23T18:34:57.902Z,22.71
2018-09-23T18:37:24.003Z,22.46
2018-09-23T18:39:50.029Z,22.54
2018-09-23T18:42:16.153Z,22.52
2018-09-23T18:44:42.131Z,22.43
2018-09-23T18:47:08.317Z,22.34
2018-09-23T18:49:34.500Z,22.21
2018-09-23T18:52:00.610Z,22.12
2018-09-23T18:54:26.616Z,22.14
2018-09-23T18:56:52.664Z,22.09
2018-09-23T18:59:18.688Z,22.03
2018-09-23T19:01:44.675Z,22.11
2018-09-23T19:04:11.775Z,22.15
2018-09-23T19:06:37.817Z,22.11
2018-09-23T19:09:03.836Z,22.08
2018-09-23T19:11:29.812Z,22.05
2018-09-23T19:13:55.829Z,22.00
2018-09-23T19:16:21.833Z,21.98
2018-09-23T19:18:47.931Z,21.93
2018-09-23T19:21:13.916Z,21.91
2018-09-23T19:23:39.897Z,21.84
2018-09-23T19:26:06.044Z,21.84
2018-09-23T19:28:32.116Z,21.82
2018-09-23T19:30:58.125Z,21.77
2018-09-23T19:33:24.195Z,21.71
2018-09-23T19:35:50.207Z,21.68
2018-09-23T19:38:16.346Z,21.65
2018-09-23T19:40:42.350Z,21.59
2018-09-23T19:43:08.460Z,21.41
2018-09-23T19:45:34.736Z,21.37
2018-09-23T19:48:00.746Z,21.37
2018-09-23T19:50:26.867Z,21.39
2018-09-23T19:52:53.079Z,21.37
2018-09-23T19:55:19.427Z,21.23
2018-09-23T19:57:45.540Z,21.00
2018-09-23T20:00:11.526Z,20.87
2018-09-23T20:02:37.522Z,20.83
2018-09-23T20:05:03.735Z,20.81
2018-09-23T20:07:29.805Z,20.67
2018-09-23T20:09:55.928Z,20.59
2018-09-23T20:12:21.917Z,20.56
2018-09-23T20:14:48.010Z,20.60
2018-09-23T20:17:14.075Z,20.60
2018-09-23T20:19:40.054Z,20.51
2018-09-23T20:22:06.013Z,20.48
2018-09-23T20:24:32.013Z,20.49
2018-09-23T20:26:57.966Z,20.45
2018-09-23T20:29:27.359Z,20.38
2018-09-23T20:31:53.393Z,20.37
2018-09-23T20:34:19.385Z,20.35
2018-09-23T20:36:45.341Z,20.39
2018-09-23T20:39:11.304Z,20.46
2018-09-23T20:41:37.303Z,20.47
2018-09-23T20:44:03.359Z,20.43
2018-09-23T20:46:29.481Z,20.39
2018-09-23T20:48:55.449Z,20.41
2018-09-23T20:51:21.410Z,20.44
2018-09-23T20:53:47.450Z,20.36
2018-09-23T20:56:13.399Z,20.27
2018-09-23T20:58:39.355Z,20.35
2018-09-23T21:03:39.874Z,20.28
2018-09-23T21:06:05.839Z,20.14
2018-09-23T21:08:31.771Z,20.13
2018-09-23T21:10:57.709Z,20.10
2018-09-23T21:13:23.676Z,20.10
2018-09-23T21:15:49.733Z,20.07
2018-09-23T21:18:15.712Z,20.09
2018-09-23T21:20:41.690Z,20.11
2018-09-23T21:23:07.704Z,20.06
2018-09-23T21:25:33.656Z,19.94
2018-09-23T21:27:59.609Z,19.99
2018-09-23T21:30:25.560Z,20.01
2018-09-23T21:32:51.536Z,19.96
2018-09-23T21:35:17.515Z,19.99
2018-09-23T21:37:43.482Z,19.93
2018-09-23T21:40:09.475Z,19.89
2018-09-23T21:42:35.452Z,19.86
2018-09-23T21:45:01.424Z,19.84
2018-09-23T21:47:27.418Z,19.83
2018-09-23T21:49:53.373Z,19.82
2018-09-23T21:52:19.322Z,19.83
2018-09-23T21:54:45.275Z,19.85
2018-09-23T21:57:11.269Z,19.85
2018-09-23T21:59:37.225Z,19.83
2018-09-23T22:02:03.200Z,19.82
2018-09-23T22:04:29.183Z,19.79
2018-09-23T22:06:55.140Z,19.73
2018-09-23T22:09:21.118Z,19.77
2018-09-23T22:11:47.082Z,19.78
2018-09-23T22:14:13.049Z,19.77
2018-09-23T22:16:39.016Z,19.78
2018-09-23T22:19:04.964Z,19.75
2018-09-23T22:21:30.930Z,19.73
2018-09-23T22:23:56.873Z,19.74
2018-09-23T22:26:22.826Z,19.74
2018-09-23T22:28:48.760Z,19.69
2018-09-23T22:31:16.753Z,19.72
2018-09-23T22:33:42.708Z,19.74
2018-09-23T22:36:08.662Z,19.75
2018-09-23T22:38:34.620Z,19.83
2018-09-23T22:41:00.571Z,19.83
2018-09-23T22:43:26.537Z,19.85
2018-09-23T22:45:52.517Z,19.82
2018-09-23T22:48:18.719Z,19.80
2018-09-23T22:50:44.775Z,19.78
2018-09-23T22:53:10.720Z,19.77
2018-09-23T22:55:36.653Z,19.80
2018-09-23T22:58:02.609Z,19.77
2018-09-23T23:00:28.560Z,19.78
2018-09-23T23:02:54.519Z,19.76
2018-09-23T23:05:20.470Z,19.85
2018-09-23T23:07:46.430Z,19.90
2018-09-23T23:10:12.376Z,19.90
2018-09-23T23:12:38.371Z,19.89
2018-09-23T23:15:04.401Z,19.88
2018-09-23T23:17:30.403Z,19.86
2018-09-23T23:19:56.375Z,19.93
2018-09-23T23:22:22.395Z,19.89
2018-09-23T23:24:48.368Z,19.89
2018-09-23T23:27:14.329Z,19.88
2018-09-23T23:29:40.316Z,19.83
2018-09-23T23:32:06.287Z,19.83
2018-09-23T23:34:32.221Z,19.73
2018-09-23T23:36:58.188Z,19.74
2018-09-23T23:39:24.139Z,19.72
2018-09-23T23:41:50.119Z,19.77
2018-09-23T23:44:16.095Z,19.78
2018-09-23T23:46:42.059Z,19.81
2018-09-23T23:49:08.401Z,19.80
2018-09-23T23:51:34.394Z,19.78
2018-09-23T23:54:00.359Z,19.76
2018-09-23T23:56:26.305Z,19.75
2018-09-23T23:58:52.285Z,19.78
